Time;durP1;ratioP1;P1;durP2;ratioP2;P2;SDS_P1;SDS_P2;PMS_P1;PMS_P2;Temp;Humidity;BMP_temperature;BMP_pressure;BME280_temperature;BME280_humidity;BME280_pressure;Samples;Min_cycle;Max_cycle;Signal;HPM_P1;HPM_P2
2022/03/16 00:01:49;;;;;;;16.70;10.02;;;;;;;;;;4979409;28;20055;-80
2022/03/16 00:04:16;;;;;;;17.17;9.70;;;;;;;;;;4978283;28;20470;-80
2022/03/16 00:06:42;;;;;;;19.63;9.82;;;;;;;;;;4978703;28;20050;-79
2022/03/16 00:09:09;;;;;;;14.27;8.38;;;;;;;;;;4977011;28;20110;-79
2022/03/16 00:11:36;;;;;;;19.35;9.23;;;;;;;;;;4977672;28;20494;-80
2022/03/16 00:14:03;;;;;;;19.00;9.02;;;;;;;;;;4977040;28;20046;-80
2022/03/16 00:16:30;;;;;;;15.73;9.18;;;;;;;;;;4977191;28;20070;-79
2022/03/16 00:18:58;;;;;;;19.48;8.77;;;;;;;;;;4977171;28;20055;-79
2022/03/16 00:21:25;;;;;;;14.45;8.90;;;;;;;;;;4978020;28;20046;-79
2022/03/16 00:23:51;;;;;;;14.90;9.38;;;;;;;;;;4976835;28;20135;-79
2022/03/16 00:26:18;;;;;;;18.27;9.40;;;;;;;;;;4977070;28;20454;-79
2022/03/16 00:28:45;;;;;;;17.15;9.02;;;;;;;;;;4976145;28;20122;-79
2022/03/16 00:31:12;;;;;;;14.60;8.38;;;;;;;;;;4976230;28;20050;-79
2022/03/16 00:33:40;;;;;;;15.43;8.95;;;;;;;;;;4976335;28;20078;-78
2022/03/16 00:36:08;;;;;;;15.63;8.88;;;;;;;;;;4975891;28;20105;-78
2022/03/16 00:38:34;;;;;;;14.75;9.82;;;;;;;;;;4975855;28;20495;-79
2022/03/16 00:41:02;;;;;;;16.02;10.07;;;;;;;;;;4976282;28;20047;-79
2022/03/16 00:43:29;;;;;;;19.70;10.25;;;;;;;;;;4976664;28;20057;-79
2022/03/16 00:45:56;;;;;;;18.65;10.98;;;;;;;;;;4975596;28;20055;-78
2022/03/16 00:48:23;;;;;;;16.70;11.10;;;;;;;;;;4975214;28;20047;-78
2022/03/16 00:50:49;;;;;;;21.42;11.02;;;;;;;;;;4975275;28;20109;-78
2022/03/16 00:53:17;;;;;;;18.98;11.95;;;;;;;;;;4976250;28;20101;-78
2022/03/16 00:55:44;;;;;;;17.05;11.32;;;;;;;;;;4980750;28;20054;-79
2022/03/16 00:58:11;;;;;;;19.25;12.35;;;;;;;;;;4979992;28;20046;-79
2022/03/16 01:00:38;;;;;;;20.05;12.23;;;;;;;;;;4978847;28;20050;-79
2022/03/16 01:03:05;;;;;;;19.48;12.20;;;;;;;;;;4977411;28;20043;-78
2022/03/16 01:05:31;;;;;;;20.75;13.60;;;;;;;;;;4977017;28;20462;-80
2022/03/16 01:07:58;;;;;;;22.27;13.27;;;;;;;;;;4978540;28;20105;-80
2022/03/16 01:10:26;;;;;;;21.13;13.05;;;;;;;;;;4977594;28;20047;-80
2022/03/16 01:12:55;;;;;;;20.65;13.95;;;;;;;;;;4977633;28;20054;-81
2022/03/16 01:15:23;;;;;;;22.23;12.55;;;;;;;;;;4977396;28;20097;-79
2022/03/16 01:17:50;;;;;;;19.88;12.75;;;;;;;;;;4977154;28;20050;-78
2022/03/16 01:20:17;;;;;;;20.40;14.23;;;;;;;;;;4977380;28;20079;-79
2022/03/16 01:22:44;;;;;;;20.77;12.88;;;;;;;;;;4977140;28;20051;-78
2022/03/16 01:25:11;;;;;;;21.00;13.05;;;;;;;;;;4976818;28;20106;-78
2022/03/16 01:27:39;;;;;;;22.98;13.82;;;;;;;;;;4977884;28;20059;-77
2022/03/16 01:30:07;;;;;;;19.25;12.50;;;;;;;;;;4978360;28;20054;-77
2022/03/16 01:32:34;;;;;;;19.70;13.40;;;;;;;;;;4975584;28;20054;-78
2022/03/16 01:35:01;;;;;;;20.27;13.20;;;;;;;;;;4975174;28;20069;-78
2022/03/16 01:37:30;;;;;;;22.08;14.25;;;;;;;;;;4975382;28;20419;-78
2022/03/16 01:39:57;;;;;;;18.05;12.57;;;;;;;;;;4977440;28;20058;-78
2022/03/16 01:42:24;;;;;;;21.83;13.20;;;;;;;;;;4977619;28;20054;-79
2022/03/16 01:44:53;;;;;;;18.77;12.25;;;;;;;;;;4976468;28;20050;-79
2022/03/16 01:47:22;;;;;;;21.90;13.30;;;;;;;;;;4977149;28;20050;-79
2022/03/16 01:49:50;;;;;;;20.08;12.55;;;;;;;;;;4977030;28;20054;-78
2022/03/16 01:52:20;;;;;;;20.45;13.32;;;;;;;;;;4975497;28;20043;-78
2022/03/16 01:54:47;;;;;;;23.97;14.50;;;;;;;;;;4976019;28;20046;-78
2022/03/16 01:57:15;;;;;;;22.88;13.60;;;;;;;;;;4975301;28;20043;-78
2022/03/16 01:59:43;;;;;;;20.75;13.90;;;;;;;;;;4975818;28;20498;-78
2022/03/16 02:02:12;;;;;;;22.27;13.07;;;;;;;;;;4976102;28;20105;-79
2022/03/16 02:04:39;;;;;;;24.60;13.73;;;;;;;;;;4975522;28;20507;-79
2022/03/16 02:07:07;;;;;;;22.85;13.57;;;;;;;;;;4976214;28;20564;-78
2022/03/16 02:09:34;;;;;;;23.40;13.95;;;;;;;;;;4978225;28;20047;-79
2022/03/16 02:12:01;;;;;;;22.52;14.68;;;;;;;;;;4979453;28;20080;-79
2022/03/16 02:14:28;;;;;;;21.75;14.60;;;;;;;;;;4977736;28;20054;-79
2022/03/16 02:16:57;;;;;;;22.70;15.43;;;;;;;;;;4975552;28;20074;-77
2022/03/16 02:19:25;;;;;;;24.30;14.75;;;;;;;;;;4974476;28;20057;-78
2022/03/16 02:21:56;;;;;;;25.00;15.35;;;;;;;;;;4974454;28;20518;-78
2022/03/16 02:24:25;;;;;;;24.73;15.88;;;;;;;;;;4975013;28;20130;-78
2022/03/16 02:26:52;;;;;;;22.75;15.13;;;;;;;;;;4974808;28;20129;-78
2022/03/16 02:29:18;;;;;;;24.55;15.63;;;;;;;;;;4975354;28;20047;-77
2022/03/16 02:31:45;;;;;;;24.25;15.32;;;;;;;;;;4974867;28;20051;-77
2022/03/16 02:34:12;;;;;;;26.42;16.23;;;;;;;;;;4975025;28;20065;-77
2022/03/16 02:36:39;;;;;;;24.23;15.40;;;;;;;;;;4974881;28;20078;-78
2022/03/16 02:39:06;;;;;;;23.88;15.10;;;;;;;;;;4975223;28;20521;-78
2022/03/16 02:41:35;;;;;;;25.85;16.42;;;;;;;;;;4974069;28;20059;-78
2022/03/16 02:44:02;;;;;;;29.35;15.65;;;;;;;;;;4973837;28;20058;-78
2022/03/16 02:46:29;;;;;;;25.85;16.33;;;;;;;;;;4973348;28;20050;-79
2022/03/16 02:48:56;;;;;;;26.67;15.52;;;;;;;;;;4973704;28;20050;-79
2022/03/16 02:51:23;;;;;;;24.08;15.27;;;;;;;;;;4973876;28;20055;-79
2022/03/16 02:53:52;;;;;;;27.45;15.45;;;;;;;;;;4974363;28;20051;-78
2022/03/16 02:56:19;;;;;;;26.42;14.45;;;;;;;;;;4977940;28;20465;-80
2022/03/16 02:58:47;;;;;;;26.92;16.63;;;;;;;;;;4997511;28;20082;-79
2022/03/16 03:01:14;;;;;;;29.40;15.90;;;;;;;;;;4998659;28;20090;-79
2022/03/16 03:03:41;;;;;;;25.15;14.98;;;;;;;;;;4983884;28;20054;-78
2022/03/16 03:06:07;;;;;;;26.73;15.52;;;;;;;;;;4981540;28;20051;-79
2022/03/16 03:08:34;;;;;;;27.50;15.32;;;;;;;;;;4978575;28;20051;-80
2022/03/16 03:11:01;;;;;;;27.77;16.23;;;;;;;;;;4978713;28;20055;-78
2022/03/16 03:13:28;;;;;;;30.95;16.92;;;;;;;;;;4979571;28;20051;-79
2022/03/16 03:15:57;;;;;;;28.13;16.40;;;;;;;;;;4978505;28;20054;-79
2022/03/16 03:18:23;;;;;;;28.90;15.93;;;;;;;;;;4978748;28;20047;-80
2022/03/16 03:20:50;;;;;;;27.75;16.15;;;;;;;;;;4978703;28;20086;-78
2022/03/16 03:23:17;;;;;;;28.60;16.00;;;;;;;;;;4979072;28;20055;-79
2022/03/16 03:25:44;;;;;;;27.40;16.02;;;;;;;;;;4978496;28;20050;-80
2022/03/16 03:28:11;;;;;;;27.95;16.42;;;;;;;;;;4977807;28;20450;-80
2022/03/16 03:30:37;;;;;;;26.50;16.20;;;;;;;;;;4978356;28;20125;-80
2022/03/16 03:33:05;;;;;;;27.42;16.00;;;;;;;;;;4978315;28;20054;-80
2022/03/16 03:35:32;;;;;;;30.42;16.80;;;;;;;;;;4978356;28;20055;-79
2022/03/16 03:37:59;;;;;;;28.65;15.82;;;;;;;;;;4977645;28;20536;-80
2022/03/16 03:40:26;;;;;;;27.27;15.88;;;;;;;;;;4978439;28;20066;-80
2022/03/16 03:42:53;;;;;;;25.63;15.82;;;;;;;;;;4977732;28;20062;-79
2022/03/16 03:45:20;;;;;;;27.95;16.05;;;;;;;;;;4977892;28;20047;-78
2022/03/16 03:47:47;;;;;;;27.05;15.95;;;;;;;;;;4978250;28;20070;-80
2022/03/16 03:50:16;;;;;;;27.17;15.85;;;;;;;;;;4978144;28;20054;-80
2022/03/16 03:52:43;;;;;;;25.70;15.43;;;;;;;;;;4978028;28;20105;-80
2022/03/16 03:55:10;;;;;;;28.27;15.80;;;;;;;;;;4978524;28;20058;-80
2022/03/16 03:57:37;;;;;;;27.30;15.27;;;;;;;;;;4978145;28;20055;-80
2022/03/16 04:00:04;;;;;;;23.70;14.25;;;;;;;;;;4979192;28;20050;-78
2022/03/16 04:02:31;;;;;;;23.45;14.20;;;;;;;;;;4988167;23;20058;-79
2022/03/16 04:04:58;;;;;;;25.35;13.93;;;;;;;;;;4978956;28;20059;-78
2022/03/16 04:07:26;;;;;;;26.20;14.75;;;;;;;;;;4979517;28;20102;-79
2022/03/16 04:09:53;;;;;;;27.17;14.45;;;;;;;;;;4974043;29;20071;-79
2022/03/16 04:12:20;;;;;;;27.92;14.30;;;;;;;;;;4970043;29;20051;-78
2022/03/16 04:14:47;;;;;;;27.08;14.25;;;;;;;;;;4971062;29;20058;-80
2022/03/16 04:17:14;;;;;;;27.15;14.27;;;;;;;;;;4970589;29;20051;-79
2022/03/16 04:19:41;;;;;;;22.50;12.77;;;;;;;;;;4968721;29;20054;-79
2022/03/16 04:22:11;;;;;;;24.98;12.90;;;;;;;;;;4975501;29;20047;-78
2022/03/16 04:24:39;;;;;;;23.10;13.88;;;;;;;;;;4975083;29;20074;-78
2022/03/16 04:27:06;;;;;;;26.58;14.68;;;;;;;;;;4967580;29;20089;-76
2022/03/16 04:29:33;;;;;;;24.35;14.50;;;;;;;;;;4970038;29;20035;-78
2022/03/16 04:32:00;;;;;;;28.02;14.25;;;;;;;;;;4975845;29;20066;-79
2022/03/16 04:34:26;;;;;;;24.60;13.82;;;;;;;;;;4969747;29;20066;-78
2022/03/16 04:36:53;;;;;;;29.23;16.15;;;;;;;;;;4975087;29;20083;-79
2022/03/16 04:39:20;;;;;;;28.83;15.98;;;;;;;;;;4960489;29;20055;-79
2022/03/16 04:41:48;;;;;;;28.95;16.23;;;;;;;;;;4957312;29;20047;-78
2022/03/16 04:44:17;;;;;;;29.20;14.93;;;;;;;;;;4952528;29;20388;-79
2022/03/16 04:46:44;;;;;;;27.75;14.35;;;;;;;;;;4937546;29;20503;-78
2022/03/16 04:49:11;;;;;;;27.67;15.40;;;;;;;;;;4937313;29;20048;-77
2022/03/16 04:51:38;;;;;;;25.15;14.93;;;;;;;;;;4935960;29;20142;-77
2022/03/16 04:54:05;;;;;;;27.65;17.65;;;;;;;;;;4936459;29;20415;-78
2022/03/16 04:56:35;;;;;;;27.10;15.02;;;;;;;;;;4936067;29;20098;-78
2022/03/16 04:59:04;;;;;;;29.70;15.88;;;;;;;;;;4937304;29;20460;-78
2022/03/16 05:01:31;;;;;;;28.02;15.23;;;;;;;;;;4937222;29;20480;-79
2022/03/16 05:03:58;;;;;;;27.75;14.73;;;;;;;;;;4936910;29;20051;-79
2022/03/16 05:06:25;;;;;;;25.23;15.05;;;;;;;;;;4936418;29;20051;-77
2022/03/16 05:08:51;;;;;;;24.88;15.10;;;;;;;;;;4936693;29;20455;-78
2022/03/16 05:11:22;;;;;;;23.55;13.50;;;;;;;;;;4936976;29;20055;-79
2022/03/16 05:13:49;;;;;;;25.73;14.80;;;;;;;;;;4936662;29;20059;-78
2022/03/16 05:16:18;;;;;;;24.15;13.93;;;;;;;;;;4936142;29;20456;-79
2022/03/16 05:18:45;;;;;;;23.27;14.23;;;;;;;;;;4935883;29;20047;-77
2022/03/16 05:21:14;;;;;;;24.80;14.35;;;;;;;;;;4936919;29;20055;-79
2022/03/16 05:23:42;;;;;;;26.48;14.70;;;;;;;;;;4936663;29;20103;-79
2022/03/16 05:26:09;;;;;;;26.33;13.32;;;;;;;;;;4938260;29;20078;-78
2022/03/16 05:28:38;;;;;;;24.17;13.98;;;;;;;;;;4938552;29;20116;-78
2022/03/16 05:31:05;;;;;;;26.40;14.93;;;;;;;;;;4937152;29;20047;-77
2022/03/16 05:33:36;;;;;;;27.73;14.73;;;;;;;;;;4938004;29;20079;-78
2022/03/16 05:36:06;;;;;;;23.73;14.02;;;;;;;;;;4938042;29;20052;-77
2022/03/16 05:38:33;;;;;;;27.13;15.83;;;;;;;;;;4939567;29;20089;-78
2022/03/16 05:41:00;;;;;;;27.17;16.10;;;;;;;;;;4938876;29;20051;-78
2022/03/16 05:43:30;;;;;;;26.25;14.70;;;;;;;;;;4939418;29;20055;-78
2022/03/16 05:45:56;;;;;;;26.48;14.65;;;;;;;;;;4940135;29;20055;-78
2022/03/16 05:48:23;;;;;;;23.75;15.02;;;;;;;;;;4939755;29;20054;-77
2022/03/16 05:50:51;;;;;;;25.60;15.13;;;;;;;;;;4941494;29;20078;-80
2022/03/16 05:53:20;;;;;;;23.27;14.05;;;;;;;;;;4944643;29;20051;-78
2022/03/16 05:55:47;;;;;;;23.83;13.77;;;;;;;;;;4946656;29;20135;-78
2022/03/16 05:58:14;;;;;;;25.17;13.93;;;;;;;;;;4944084;29;20051;-78
2022/03/16 06:00:43;;;;;;;27.08;15.48;;;;;;;;;;4939858;29;20106;-79
2022/03/16 06:03:12;;;;;;;27.38;14.77;;;;;;;;;;4938341;29;20051;-78
2022/03/16 06:05:39;;;;;;;25.27;13.93;;;;;;;;;;4938405;29;20075;-79
2022/03/16 06:08:16;;;;;;;23.38;13.82;;;;;;;;;;4938665;29;20400;-80
2022/03/16 06:10:44;;;;;;;24.73;14.38;;;;;;;;;;4938633;29;20062;-77
2022/03/16 06:13:16;;;;;;;25.63;14.85;;;;;;;;;;4937416;29;20056;-78
2022/03/16 06:15:48;;;;;;;26.20;15.00;;;;;;;;;;4936080;29;20051;-77
2022/03/16 06:18:31;;;;;;;27.42;14.90;;;;;;;;;;4936794;29;20126;-78
2022/03/16 06:21:12;;;;;;;24.20;14.40;;;;;;;;;;4937877;29;20087;-78
2022/03/16 06:23:41;;;;;;;24.95;14.20;;;;;;;;;;4937755;29;20055;-78
2022/03/16 06:26:09;;;;;;;26.48;15.60;;;;;;;;;;4937386;29;20072;-78
2022/03/16 06:28:42;;;;;;;27.75;15.20;;;;;;;;;;4937992;29;20418;-78
2022/03/16 06:31:09;;;;;;;25.38;14.30;;;;;;;;;;4939597;29;20051;-78
2022/03/16 06:33:36;;;;;;;26.33;15.38;;;;;;;;;;4939383;29;20068;-77
2022/03/16 06:36:09;;;;;;;29.38;16.17;;;;;;;;;;4941892;29;20052;-78
2022/03/16 06:38:36;;;;;;;26.80;14.35;;;;;;;;;;4941369;29;20051;-78
2022/03/16 06:41:09;;;;;;;27.33;14.95;;;;;;;;;;4941819;29;20075;-79
2022/03/16 06:43:36;;;;;;;25.95;16.13;;;;;;;;;;4941534;29;20051;-78
2022/03/16 06:46:03;;;;;;;23.15;13.68;;;;;;;;;;4941464;29;20079;-77
2022/03/16 06:48:31;;;;;;;23.30;13.88;;;;;;;;;;4940534;29;20103;-77
2022/03/16 06:50:58;;;;;;;27.75;15.68;;;;;;;;;;4938838;28;20526;-77
2022/03/16 06:53:30;;;;;;;29.33;15.65;;;;;;;;;;4938171;29;20056;-78
2022/03/16 06:56:21;;;;;;;26.27;14.77;;;;;;;;;;4940148;29;20122;-78
2022/03/16 06:59:05;;;;;;;27.65;13.82;;;;;;;;;;4939723;29;20396;-78
2022/03/16 07:01:38;;;;;;;27.63;15.77;;;;;;;;;;4942003;29;20079;-77
2022/03/16 07:04:08;;;;;;;28.90;15.40;;;;;;;;;;4940130;29;20048;-78
2022/03/16 07:06:39;;;;;;;25.88;15.70;;;;;;;;;;4941075;29;20055;-77
2022/03/16 07:09:37;;;;;;;;;;;;;;;;;;;;;
2022/03/16 07:12:07;;;;;;;37.90;15.77;;;;;;;;;;4935657;29;20134;-77
2022/03/16 07:14:34;;;;;;;27.90;16.25;;;;;;;;;;4941891;29;20051;-78
2022/03/16 07:17:02;;;;;;;29.75;16.42;;;;;;;;;;4941236;29;20538;-77
2022/03/16 07:19:33;;;;;;;31.73;17.00;;;;;;;;;;4939687;29;20154;-79
2022/03/16 07:22:01;;;;;;;28.75;15.63;;;;;;;;;;4940576;29;20721;-77
2022/03/16 07:24:28;;;;;;;28.48;16.45;;;;;;;;;;4940722;29;20054;-79
2022/03/16 07:26:55;;;;;;;31.67;18.38;;;;;;;;;;4941950;29;20055;-78
2022/03/16 07:29:28;;;;;;;29.55;16.95;;;;;;;;;;4940786;29;20055;-79
2022/03/16 07:32:01;;;;;;;35.47;18.50;;;;;;;;;;4940860;28;20044;-78
2022/03/16 07:34:28;;;;;;;32.10;17.08;;;;;;;;;;4941908;29;20070;-79
2022/03/16 07:36:56;;;;;;;31.80;17.35;;;;;;;;;;4940333;29;20044;-78
2022/03/16 07:39:31;;;;;;;30.65;16.33;;;;;;;;;;4941605;28;20072;-78
2022/03/16 07:42:05;;;;;;;31.45;17.92;;;;;;;;;;4940886;29;20419;-78
2022/03/16 07:44:34;;;;;;;31.60;17.25;;;;;;;;;;4935363;28;20056;-76
2022/03/16 07:47:02;;;;;;;31.77;17.73;;;;;;;;;;4922245;29;20112;-77
2022/03/16 07:49:29;;;;;;;29.95;17.15;;;;;;;;;;4922634;29;20054;-77
2022/03/16 07:52:06;;;;;;;28.10;15.60;;;;;;;;;;4922076;29;20055;-79
2022/03/16 07:54:45;;;;;;;29.65;15.80;;;;;;;;;;4922890;29;20063;-78
2022/03/16 07:57:32;;;;;;;29.38;16.63;;;;;;;;;;4925882;29;20139;-78
2022/03/16 08:00:08;;;;;;;28.27;15.98;;;;;;;;;;4927150;29;20100;-80
2022/03/16 08:02:39;;;;;;;26.83;15.77;;;;;;;;;;4924937;29;20055;-78
2022/03/16 08:05:07;;;;;;;;;;;;;;;;;;4921227;29;20080;-78
2022/03/16 08:07:34;;;;;;;27.75;15.52;;;;;;;;;;4921495;29;20393;-77
2022/03/16 08:10:01;;;;;;;28.70;16.45;;;;;;;;;;4921132;29;20052;-76
2022/03/16 08:12:28;;;;;;;26.48;16.17;;;;;;;;;;4920650;29;20044;-77
2022/03/16 08:14:55;;;;;;;30.55;16.30;;;;;;;;;;4920229;29;20523;-77
2022/03/16 08:17:23;;;;;;;32.22;18.02;;;;;;;;;;4921034;29;20055;-77
2022/03/16 08:19:50;;;;;;;30.60;17.17;;;;;;;;;;4920780;29;20044;-77
2022/03/16 08:22:25;;;;;;;27.90;16.38;;;;;;;;;;4922038;29;20087;-77
2022/03/16 08:24:52;;;;;;;30.98;18.10;;;;;;;;;;4920341;29;20086;-78
2022/03/16 08:27:19;;;;;;;34.90;19.52;;;;;;;;;;4921008;29;20048;-75
2022/03/16 08:29:47;;;;;;;32.35;17.25;;;;;;;;;;4935055;29;20044;-76
2022/03/16 08:32:14;;;;;;;27.15;15.82;;;;;;;;;;4935361;29;20044;-76
2022/03/16 08:34:42;;;;;;;29.52;16.10;;;;;;;;;;4934925;29;20581;-77
2022/03/16 08:37:15;;;;;;;30.13;18.02;;;;;;;;;;4933756;29;20519;-77
2022/03/16 08:39:51;;;;;;;28.42;16.15;;;;;;;;;;4937183;29;20063;-78
2022/03/16 08:42:21;;;;;;;29.33;17.25;;;;;;;;;;4928540;29;20553;-77
2022/03/16 08:44:53;;;;;;;30.88;17.13;;;;;;;;;;4937348;29;20055;-78
2022/03/16 08:51:20;;;;;;;30.42;17.80;;;;;;;;;;4844634;29;20060;-78
2022/03/16 09:04:32;;;;;;;27.38;15.38;;;;;;;;;;4991584;23;20038;-67
2022/03/16 09:07:03;;;;;;;25.45;15.38;;;;;;;;;;4972525;28;20055;-67
2022/03/16 09:09:38;;;;;;;25.33;14.32;;;;;;;;;;4972593;28;20050;-68
2022/03/16 09:12:20;;;;;;;25.63;15.65;;;;;;;;;;4972310;28;20054;-69
2022/03/16 09:14:52;;;;;;;27.27;14.55;;;;;;;;;;4972019;28;20138;-69
2022/03/16 09:17:21;;;;;;;27.30;16.27;;;;;;;;;;4972698;28;20472;-68
2022/03/16 09:19:54;;;;;;;27.20;14.45;;;;;;;;;;4972549;28;20066;-68
2022/03/16 09:22:28;;;;;;;27.23;16.27;;;;;;;;;;4972345;28;20312;-68
2022/03/16 09:24:57;;;;;;;24.92;14.40;;;;;;;;;;4970907;28;20059;-67
2022/03/16 09:27:24;;;;;;;24.88;14.63;;;;;;;;;;4971973;28;20580;-67
2022/03/16 09:29:53;;;;;;;22.50;14.25;;;;;;;;;;4971087;28;20138;-67
2022/03/16 09:32:21;;;;;;;25.95;14.88;;;;;;;;;;4971782;28;20465;-67
2022/03/16 09:34:49;;;;;;;27.88;14.85;;;;;;;;;;4971531;28;20051;-68
2022/03/16 09:37:16;;;;;;;29.08;14.82;;;;;;;;;;4971621;28;20054;-68
2022/03/16 09:39:46;;;;;;;22.30;13.63;;;;;;;;;;4971669;28;20517;-68
2022/03/16 09:42:13;;;;;;;24.60;14.13;;;;;;;;;;4952665;29;20519;-68
2022/03/16 09:44:41;;;;;;;23.77;13.13;;;;;;;;;;4952301;29;20043;-67
2022/03/16 09:47:09;;;;;;;23.73;13.38;;;;;;;;;;4952683;28;20394;-68
2022/03/16 09:49:38;;;;;;;25.23;13.80;;;;;;;;;;4966760;28;20055;-67
2022/03/16 09:52:09;;;;;;;23.35;13.35;;;;;;;;;;4971647;28;20061;-67
2022/03/16 09:54:36;;;;;;;23.92;12.70;;;;;;;;;;4972356;28;20508;-70
2022/03/16 09:57:05;;;;;;;24.48;13.73;;;;;;;;;;4971990;28;20054;-66
2022/03/16 09:59:32;;;;;;;21.90;13.50;;;;;;;;;;4971283;28;20046;-67
2022/03/16 10:02:04;;;;;;;25.60;12.88;;;;;;;;;;4971588;28;20062;-66
2022/03/16 10:04:33;;;;;;;20.40;11.88;;;;;;;;;;4971237;28;20055;-66
2022/03/16 10:07:01;;;;;;;22.15;14.07;;;;;;;;;;4971409;28;20657;-66
2022/03/16 10:15:07;;;;;;;22.02;12.57;;;;;;;;;;4971440;28;20432;-67
2022/03/16 10:17:47;;;;;;;22.17;13.40;;;;;;;;;;4971306;28;20043;-67
2022/03/16 10:20:26;;;;;;;18.80;11.63;;;;;;;;;;4971326;28;20528;-67
2022/03/16 10:22:59;;;;;;;20.85;12.30;;;;;;;;;;4971220;28;20179;-67
2022/03/16 10:25:27;;;;;;;22.35;13.18;;;;;;;;;;4971101;28;20107;-67
2022/03/16 10:28:14;;;;;;;22.25;12.55;;;;;;;;;;4971160;28;20051;-67
2022/03/16 10:30:55;;;;;;;19.77;12.27;;;;;;;;;;4971168;28;20050;-67
2022/03/16 10:33:22;;;;;;;;;;;;;;;;;;4971494;28;20050;-67
2022/03/16 10:36:02;;;;;;;21.70;13.18;;;;;;;;;;4971061;28;19922;-67
2022/03/16 10:38:30;;;;;;;22.63;11.77;;;;;;;;;;4971230;28;20464;-67
2022/03/16 10:41:11;;;;;;;22.77;13.07;;;;;;;;;;4970985;28;20055;-67
2022/03/16 10:46:38;;;;;;;23.90;13.07;;;;;;;;;;4971126;28;20049;-67
2022/03/16 10:49:07;;;;;;;19.05;11.93;;;;;;;;;;4970884;28;20054;-67
2022/03/16 10:51:35;;;;;;;23.52;13.18;;;;;;;;;;4970800;28;20122;-67
2022/03/16 10:54:03;;;;;;;22.38;12.50;;;;;;;;;;4970491;28;20227;-67
2022/03/16 10:56:31;;;;;;;19.95;12.80;;;;;;;;;;4970890;28;20051;-67
2022/03/16 10:59:00;;;;;;;20.83;12.48;;;;;;;;;;4970848;28;20531;-67
2022/03/16 11:01:28;;;;;;;19.92;12.65;;;;;;;;;;4970419;28;20046;-67
2022/03/16 11:03:58;;;;;;;21.85;12.55;;;;;;;;;;4970707;28;20062;-67
2022/03/16 11:06:26;;;;;;;22.85;12.82;;;;;;;;;;4970605;28;20507;-67
2022/03/16 11:08:55;;;;;;;21.88;11.18;;;;;;;;;;4970534;28;20461;-67
2022/03/16 11:14:11;;;;;;;23.23;12.45;;;;;;;;;;4970603;28;20066;-67
2022/03/16 11:16:38;;;;;;;21.15;13.38;;;;;;;;;;4971937;28;20051;-67
2022/03/16 11:19:07;;;;;;;20.50;12.50;;;;;;;;;;4973714;28;20058;-67
2022/03/16 11:21:45;;;;;;;21.08;12.95;;;;;;;;;;4973801;28;20047;-67
2022/03/16 11:24:21;;;;;;;23.58;13.00;;;;;;;;;;4974200;28;20061;-67
2022/03/16 11:27:34;;;;;;;21.70;12.43;;;;;;;;;;4974172;28;20051;-67
2022/03/16 11:30:26;;;;;;;21.27;12.98;;;;;;;;;;4965794;28;20053;-66
2022/03/16 11:32:57;;;;;;;22.67;12.88;;;;;;;;;;4974125;28;20086;-68
2022/03/16 11:35:30;;;;;;;21.17;13.82;;;;;;;;;;4973413;28;20395;-67
2022/03/16 11:38:01;;;;;;;21.08;13.07;;;;;;;;;;4973910;28;20059;-67
2022/03/16 11:40:31;;;;;;;23.83;13.45;;;;;;;;;;4973764;28;20047;-67
2022/03/16 11:43:23;;;;;;;22.77;14.63;;;;;;;;;;4973941;28;20238;-67
2022/03/16 11:45:54;;;;;;;21.70;13.20;;;;;;;;;;4973540;28;20408;-67
2022/03/16 11:48:39;;;;;;;23.25;14.75;;;;;;;;;;4973726;28;20062;-67
2022/03/16 11:51:27;;;;;;;22.35;14.35;;;;;;;;;;4973629;28;20131;-69
2022/03/16 11:54:11;;;;;;;25.20;14.27;;;;;;;;;;4973974;28;20038;-68
2022/03/16 11:56:50;;;;;;;20.52;12.07;;;;;;;;;;4974203;28;20055;-67
2022/03/16 11:59:34;;;;;;;30.05;14.85;;;;;;;;;;4973683;28;20050;-67
2022/03/16 12:02:13;;;;;;;20.88;12.63;;;;;;;;;;4973447;28;20133;-66
2022/03/16 12:04:42;;;;;;;22.27;13.20;;;;;;;;;;4973495;28;20508;-67
2022/03/16 12:07:12;;;;;;;22.75;13.65;;;;;;;;;;4973981;28;20143;-68
2022/03/16 12:09:43;;;;;;;20.35;13.93;;;;;;;;;;4973993;28;20055;-67
2022/03/16 12:15:26;;;;;;;22.17;12.95;;;;;;;;;;4973342;28;20444;-67
2022/03/16 12:18:28;;;;;;;20.48;12.65;;;;;;;;;;4973376;28;20066;-67
2022/03/16 12:21:03;;;;;;;20.63;13.15;;;;;;;;;;4973085;28;20075;-67
2022/03/16 12:23:58;;;;;;;23.52;14.52;;;;;;;;;;4973358;28;20742;-67
2022/03/16 12:26:30;;;;;;;21.33;13.25;;;;;;;;;;4963774;28;20058;-67
2022/03/16 12:29:05;;;;;;;24.58;13.73;;;;;;;;;;4972660;28;20051;-67
2022/03/16 12:31:34;;;;;;;21.75;13.25;;;;;;;;;;4973223;28;20416;-67
2022/03/16 12:34:03;;;;;;;21.83;13.82;;;;;;;;;;4973221;28;20046;-67
2022/03/16 12:36:31;;;;;;;24.23;14.68;;;;;;;;;;4973209;28;20054;-67
2022/03/16 12:38:59;;;;;;;21.92;14.95;;;;;;;;;;4972901;28;20082;-66
2022/03/16 12:44:13;;;;;;;19.95;14.13;;;;;;;;;;4973219;28;20105;-67
2022/03/16 12:47:07;;;;;;;18.20;12.73;;;;;;;;;;4973051;28;20058;-67
2022/03/16 12:49:42;;;;;;;18.70;12.88;;;;;;;;;;4963447;28;20487;-66
2022/03/16 12:52:09;;;;;;;21.77;13.82;;;;;;;;;;4972671;28;20050;-67
2022/03/16 12:54:37;;;;;;;22.05;14.18;;;;;;;;;;4972685;28;20055;-66
2022/03/16 12:57:09;;;;;;;20.30;13.38;;;;;;;;;;4972721;28;20412;-67
2022/03/16 12:59:38;;;;;;;20.52;13.52;;;;;;;;;;4972610;28;20081;-67
2022/03/16 13:02:07;;;;;;;20.90;13.98;;;;;;;;;;4972719;28;20047;-67
2022/03/16 13:04:34;;;;;;;19.50;13.88;;;;;;;;;;4972669;28;20053;-66
2022/03/16 13:07:03;;;;;;;20.80;14.10;;;;;;;;;;4972540;28;20054;-67
2022/03/16 13:09:31;;;;;;;21.13;14.30;;;;;;;;;;4972628;28;20051;-67
2022/03/16 13:12:07;;;;;;;20.60;13.50;;;;;;;;;;4972109;28;20050;-67
2022/03/16 13:14:36;;;;;;;22.33;15.55;;;;;;;;;;4972379;28;20057;-67
2022/03/16 13:17:04;;;;;;;20.90;15.13;;;;;;;;;;4972708;28;20476;-67
2022/03/16 13:19:32;;;;;;;22.45;15.32;;;;;;;;;;4972174;28;20046;-67
2022/03/16 13:22:04;;;;;;;21.23;14.68;;;;;;;;;;4972372;28;20145;-67
2022/03/16 13:24:34;;;;;;;20.38;14.25;;;;;;;;;;4972912;28;20484;-67
2022/03/16 13:27:03;;;;;;;20.63;13.70;;;;;;;;;;4973351;28;20057;-67
2022/03/16 13:29:31;;;;;;;20.90;15.18;;;;;;;;;;4972355;28;20419;-66
2022/03/16 13:31:59;;;;;;;22.27;14.32;;;;;;;;;;4972192;28;20061;-67
2022/03/16 13:34:27;;;;;;;19.95;14.63;;;;;;;;;;4972305;28;20133;-67
2022/03/16 13:36:55;;;;;;;20.58;14.65;;;;;;;;;;4972191;28;20047;-67
2022/03/16 13:39:24;;;;;;;23.55;15.90;;;;;;;;;;4971318;28;20145;-66
2022/03/16 13:42:07;;;;;;;23.73;15.90;;;;;;;;;;4972547;28;20043;-66
2022/03/16 13:44:37;;;;;;;22.75;15.48;;;;;;;;;;4972244;28;20050;-67
2022/03/16 13:47:19;;;;;;;24.38;16.63;;;;;;;;;;4972048;28;20059;-66
2022/03/16 13:49:48;;;;;;;23.80;15.60;;;;;;;;;;4971811;28;20473;-66
2022/03/16 13:52:18;;;;;;;20.55;14.25;;;;;;;;;;4972144;28;20055;-66
2022/03/16 13:54:45;;;;;;;20.85;14.40;;;;;;;;;;4972036;28;20090;-67
2022/03/16 13:57:16;;;;;;;20.90;14.55;;;;;;;;;;4971906;28;20138;-66
2022/03/16 13:59:52;;;;;;;21.73;15.68;;;;;;;;;;4971928;28;20054;-67
2022/03/16 14:02:21;;;;;;;20.05;15.38;;;;;;;;;;4971500;28;20485;-68
2022/03/16 14:04:57;;;;;;;22.67;16.88;;;;;;;;;;4972097;28;20074;-67
2022/03/16 14:07:27;;;;;;;22.60;16.45;;;;;;;;;;4971770;28;20055;-67
2022/03/16 14:09:56;;;;;;;22.90;17.25;;;;;;;;;;4972002;28;20416;-66
2022/03/16 14:12:26;;;;;;;24.75;17.60;;;;;;;;;;4971862;28;20105;-65
2022/03/16 14:15:03;;;;;;;25.17;17.40;;;;;;;;;;4972406;28;20137;-67
2022/03/16 14:17:47;;;;;;;22.73;16.73;;;;;;;;;;4971786;28;20050;-66
2022/03/16 14:20:16;;;;;;;22.92;16.55;;;;;;;;;;4971589;28;20059;-66
2022/03/16 14:22:44;;;;;;;21.55;15.27;;;;;;;;;;4971405;28;20046;-67
2022/03/16 14:25:25;;;;;;;21.70;15.95;;;;;;;;;;4971455;28;20061;-66
2022/03/16 14:27:56;;;;;;;24.30;18.50;;;;;;;;;;4971702;28;20150;-67
2022/03/16 14:30:24;;;;;;;20.65;15.02;;;;;;;;;;4971369;28;20046;-67
2022/03/16 14:32:53;;;;;;;22.70;15.55;;;;;;;;;;4971123;28;20057;-67
2022/03/16 14:35:21;;;;;;;21.17;15.63;;;;;;;;;;4971177;28;20057;-67
2022/03/16 14:37:51;;;;;;;23.45;16.50;;;;;;;;;;4971362;28;20564;-67
2022/03/16 14:40:21;;;;;;;20.08;14.63;;;;;;;;;;4971441;28;20046;-67
2022/03/16 14:42:48;;;;;;;;;;;;;;;;;;4972393;28;20055;-67
2022/03/16 14:45:17;;;;;;;22.83;16.58;;;;;;;;;;4971477;28;19929;-67
2022/03/16 14:47:44;;;;;;;21.98;14.98;;;;;;;;;;4971595;28;20404;-67
2022/03/16 14:50:11;;;;;;;19.90;14.50;;;;;;;;;;4971465;28;20043;-67
2022/03/16 14:52:39;;;;;;;20.67;14.93;;;;;;;;;;4974555;28;20138;-66
2022/03/16 14:55:07;;;;;;;22.17;15.82;;;;;;;;;;4974874;28;20122;-66
2022/03/16 14:57:35;;;;;;;19.52;14.05;;;;;;;;;;4974957;28;20439;-67
2022/03/16 15:00:02;;;;;;;23.88;16.20;;;;;;;;;;4975030;28;20509;-67
2022/03/16 15:02:30;;;;;;;22.40;15.82;;;;;;;;;;4974794;28;20047;-67
2022/03/16 15:04:59;;;;;;;23.63;16.17;;;;;;;;;;4974964;28;20072;-67
2022/03/16 15:07:27;;;;;;;23.42;15.50;;;;;;;;;;4974859;28;20058;-67